Repton, United Kingdom
Current Conditions -  °F | °C
As of 11:50 PM on Wednesday 22 Oct 2014 (Local Time) from EGNX Reporting Station
Scattered Clouds Scattered Clouds  
Wind Chill: 52°   Ceiling: Unl
Heat Index: 52°   Visibility: 6mi
Dew Point: 46°   Wind: 13mph
Humidity: 82%   Direction: 220°SW
Pressure: 30.12"   Gusts: NA
Location:  52.84°N, 1.55°W
Report Text: EGNX 222250Z 22011KT 9999 SCT025 11/08 Q1020
Loading
Personal Weather Stations






























Interactive Weather Map
Tropical Storm Tracking
New forecast layout! Learn more

10-Day Weather Forecast

Advertisements
Track Severe Weather on mobile